Terminal Aerodrome Forecast
Issued by NWS Twin Cities, MN

Home | Current Version | Previous Version | Text Only | Print | Product List | Glossary Off
Versions: 1 2 3 4 5 6 7 8 9 10 11 12 13 14 15 16 17 18 19 20

000
FTUS43 KMPX 270520
TAFSTC
TAF
KSTC 270520Z 2706/2806 28012KT P6SM SKC
     FM271400 31015G23KT P6SM SCT030
     FM271600 31014G22KT P6SM VCSH SCT025 OVC040
     FM280200 33007KT P6SM BKN025=

USA.gov is the U.S. government's official web portal to all federal, state and local government web resources and services.